Time;durP1;ratioP1;P1;durP2;ratioP2;P2;SDS_P1;SDS_P2;PMS_P1;PMS_P2;Temp;Humidity;BMP_temperature;BMP_pressure;BME280_temperature;BME280_humidity;BME280_pressure;Samples;Min_cycle;Max_cycle;Signal;HPM_P1;HPM_P2
2023/08/15 00:00:19;;;;;;;;;;;;;;;22.82;76.77;97917.81;5068267;28;19959;-67
2023/08/15 00:02:47;;;;;;;;;;;;;;;22.85;76.69;97917.00;5089339;28;19963;-67
2023/08/15 00:05:15;;;;;;;;;;;;;;;22.87;76.22;97914.66;5091384;28;20730;-67
2023/08/15 00:08:03;;;;;;;;;;;;;;;22.85;76.35;97917.00;5096810;28;19964;-67
2023/08/15 00:10:31;;;;;;;;;;;;;;;22.73;76.75;97918.16;5091052;28;19938;-67
2023/08/15 00:12:59;;;;;;;;;;;;;;;22.77;76.69;97918.97;5093010;28;20201;-66
2023/08/15 00:15:26;;;;;;;;;;;;;;;22.69;76.65;97914.59;5070129;28;19923;-66
2023/08/15 00:17:54;;;;;;;;;;;;;;;22.66;76.80;97912.63;5090419;28;19924;-67
2023/08/15 00:20:22;;;;;;;;;;;;;;;22.66;77.07;97912.63;5088002;28;20411;-66
2023/08/15 00:22:50;;;;;;;;;;;;;;;22.70;76.83;97916.97;5091862;28;19932;-66
2023/08/15 00:25:22;;;;;;;;;;;;;;;22.67;76.66;97919.72;5090511;28;19933;-67
2023/08/15 00:27:50;;;;;;;;;;;;;;;22.64;76.41;97918.56;5094562;28;19932;-67
2023/08/15 00:30:18;;;;;;;;;;;;;;;22.66;76.22;97915.38;5083738;28;20433;-67
2023/08/15 00:32:46;;;;;;;;;;;;;;;22.59;76.22;97918.94;5090351;28;19924;-67
2023/08/15 00:35:14;;;;;;;;;;;;;;;22.62;75.92;97923.66;5104115;28;19924;-66
2023/08/15 00:37:43;;;;;;;;;;;;;;;22.63;75.97;97918.91;5074174;28;20382;-66
2023/08/15 00:40:11;;;;;;;;;;;;;;;22.60;75.61;97916.94;5079915;28;19993;-67
2023/08/15 00:42:42;;;;;;;;;;;;;;;22.60;76.09;97916.94;5070602;28;19928;-66
2023/08/15 00:45:10;;;;;;;;;;;;;;;22.52;76.10;97915.31;5068130;28;19924;-67
2023/08/15 00:47:38;;;;;;;;;;;;;;;22.53;75.80;97917.72;5072824;28;19924;-67
2023/08/15 00:50:07;;;;;;;;;;;;;;;22.46;75.87;97917.69;5071694;28;19924;-66
2023/08/15 00:52:36;;;;;;;;;;;;;;;22.41;76.01;97916.06;5075630;28;19931;-67
2023/08/15 00:55:04;;;;;;;;;;;;;;;22.44;76.17;97920.84;5050966;28;19933;-66
2023/08/15 00:57:32;;;;;;;;;;;;;;;22.30;76.26;97914.47;5082769;28;19924;-67
2023/08/15 01:00:01;;;;;;;;;;;;;;;22.24;76.66;97916.81;5046305;28;19925;-66
2023/08/15 01:02:29;;;;;;;;;;;;;;;22.21;77.11;97917.56;5047257;28;20367;-66
2023/08/15 01:04:57;;;;;;;;;;;;;;;22.15;76.84;97908.84;5052734;28;19936;-67
2023/08/15 01:07:25;;;;;;;;;;;;;;;22.07;77.27;97909.97;5052493;28;20301;-67
2023/08/15 01:09:53;;;;;;;;;;;;;;;22.13;77.36;97916.75;5049515;28;19961;-66
2023/08/15 01:12:23;;;;;;;;;;;;;;;22.17;77.08;97916.78;5048935;28;19931;-66
2023/08/15 01:14:52;;;;;;;;;;;;;;;22.17;76.66;97916.78;5055636;28;20494;-66
2023/08/15 01:17:23;;;;;;;;;;;;;;;22.15;76.87;97913.59;5057167;28;20301;-66
2023/08/15 01:19:51;;;;;;;;;;;;;;;22.14;76.81;97912.81;5045732;28;20565;-66
2023/08/15 01:22:22;;;;;;;;;;;;;;;22.12;76.88;97917.16;5057002;28;19925;-66
2023/08/15 01:24:51;;;;;;;;;;;;;;;22.14;77.00;97907.25;5048678;28;19932;-66
2023/08/15 01:27:19;;;;;;;;;;;;;;;22.15;77.08;97913.59;5046443;28;20054;-66
2023/08/15 01:29:47;;;;;;;;;;;;;;;22.17;76.94;97917.56;5036105;28;19925;-66
2023/08/15 01:32:15;;;;;;;;;;;;;;;22.10;76.87;97914.75;5048610;28;19974;-66
2023/08/15 01:34:45;;;;;;;;;;;;;;;22.12;76.75;97909.63;5041496;28;19940;-66
2023/08/15 01:37:16;;;;;;;;;;;;;;;22.15;76.49;97905.28;5050176;28;19935;-66
2023/08/15 01:39:45;;;;;;;;;;;;;;;22.15;76.53;97897.00;5058615;28;19935;-66
2023/08/15 01:42:14;;;;;;;;;;;;;;;22.11;76.39;97899.75;5042622;28;20008;-66
2023/08/15 01:44:44;;;;;;;;;;;;;;;22.13;76.42;97891.06;5046697;28;19940;-66
2023/08/15 01:47:12;;;;;;;;;;;;;;;22.14;76.07;97893.44;5046609;28;19925;-66
2023/08/15 01:49:40;;;;;;;;;;;;;;;22.14;76.30;97896.19;5043921;28;19932;-66
2023/08/15 01:52:08;;;;;;;;;;;;;;;22.04;76.37;97890.59;5045805;28;19925;-66
2023/08/15 01:54:36;;;;;;;;;;;;;;;;;;5062953;28;19999;-66
2023/08/15 01:57:03;;;;;;;;;;;;;;;22.01;76.41;97891.38;5092502;28;19925;-66
2023/08/15 01:59:33;;;;;;;;;;;;;;;22.03;76.26;97887.03;5075834;28;20015;-66
2023/08/15 02:02:06;;;;;;;;;;;;;;;21.98;76.48;97876.31;5065054;28;19938;-66
2023/08/15 02:04:37;;;;;;;;;;;;;;;21.94;76.98;97881.84;5068149;28;20336;-66
2023/08/15 02:07:04;;;;;;;;;;;;;;;21.92;76.59;97877.88;5082425;28;19930;-66
2023/08/15 02:09:32;;;;;;;;;;;;;;;21.85;76.67;97872.31;5072019;28;20361;-66
2023/08/15 02:12:00;;;;;;;;;;;;;;;21.87;76.65;97879.03;5063936;28;19986;-66
2023/08/15 02:14:28;;;;;;;;;;;;;;;21.81;76.69;97877.81;5066453;28;19924;-66
2023/08/15 02:16:57;;;;;;;;;;;;;;;21.87;76.57;97887.34;5071377;28;20339;-66
2023/08/15 02:19:25;;;;;;;;;;;;;;;21.89;76.62;97884.19;5076898;28;20032;-66
2023/08/15 02:21:53;;;;;;;;;;;;;;;21.88;76.70;97877.84;5067389;28;20506;-66
2023/08/15 02:24:20;;;;;;;;;;;;;;;21.86;76.44;97880.22;5070912;28;19924;-65
2023/08/15 02:26:50;;;;;;;;;;;;;;;21.84;76.72;97879.81;5067678;28;19924;-66
2023/08/15 02:29:17;;;;;;;;;;;;;;;21.87;76.79;97879.03;5089678;28;19932;-65
2023/08/15 02:31:47;;;;;;;;;;;;;;;21.86;76.28;97879.44;5072558;28;19932;-66
2023/08/15 02:34:18;;;;;;;;;;;;;;;21.85;75.92;97878.66;5080040;28;20300;-66
2023/08/15 02:36:47;;;;;;;;;;;;;;;21.80;76.45;97880.97;5070785;28;19928;-66
2023/08/15 02:39:15;;;;;;;;;;;;;;;21.73;76.14;97875.38;5067034;28;19947;-65
2023/08/15 02:41:43;;;;;;;;;;;;;;;21.69;76.33;97881.72;5097351;27;19947;-65
2023/08/15 02:44:12;;;;;;;;;;;;;;;21.73;76.31;97875.38;5092984;28;19930;-63
2023/08/15 02:46:40;;;;;;;;;;;;;;;21.75;75.97;97876.59;5086307;28;20041;-64
2023/08/15 02:49:08;;;;;;;;;;;;;;;21.77;76.48;97888.06;5067420;28;19928;-63
2023/08/15 02:51:37;;;;;;;;;;;;;;;21.70;76.90;97882.50;5096728;28;19964;-63
2023/08/15 02:54:05;;;;;;;;;;;;;;;21.71;76.57;97895.13;5058536;28;19925;-63
2023/08/15 02:56:32;;;;;;;;;;;;;;;21.68;76.69;97890.41;5076007;28;20397;-64
2023/08/15 02:59:00;;;;;;;;;;;;;;;21.70;76.55;97886.06;5048438;28;19933;-63
2023/08/15 03:01:28;;;;;;;;;;;;;;;21.69;76.18;97891.97;5048318;28;19935;-63
2023/08/15 03:03:56;;;;;;;;;;;;;;;21.67;76.29;97883.25;5046731;28;21873;-63
2023/08/15 03:06:24;;;;;;;;;;;;;;;21.64;76.21;97889.56;5055414;28;20013;-63
2023/08/15 03:08:53;;;;;;;;;;;;;;;21.63;76.31;97877.72;5047422;28;19929;-63
2023/08/15 03:11:21;;;;;;;;;;;;;;;21.59;76.46;97870.56;5038179;28;20516;-63
2023/08/15 03:13:50;;;;;;;;;;;;;;;21.59;76.51;97871.38;5068519;28;19932;-63
2023/08/15 03:16:17;;;;;;;;;;;;;;;21.57;76.47;97867.38;5056427;28;20453;-64
2023/08/15 03:18:46;;;;;;;;;;;;;;;21.57;76.65;97872.91;5048005;28;19933;-63
2023/08/15 03:21:15;;;;;;;;;;;;;;;21.57;76.46;97879.28;5050034;28;19925;-64
2023/08/15 03:23:44;;;;;;;;;;;;;;;21.55;76.81;97878.06;5048890;28;19932;-63
2023/08/15 03:26:13;;;;;;;;;;;;;;;21.55;76.44;97875.28;5045178;28;19932;-66
2023/08/15 03:28:41;;;;;;;;;;;;;;;21.54;76.51;97870.94;5050313;28;19929;-66
2023/08/15 03:31:09;;;;;;;;;;;;;;;21.50;76.79;97879.19;5046000;28;19929;-65
2023/08/15 03:33:42;;;;;;;;;;;;;;;21.51;76.82;97885.50;5051549;28;19925;-66
2023/08/15 03:36:11;;;;;;;;;;;;;;;21.50;76.48;97889.47;5047938;28;19968;-65
2023/08/15 03:38:40;;;;;;;;;;;;;;;21.50;76.19;97895.78;5043689;28;19925;-66
2023/08/15 03:41:08;;;;;;;;;;;;;;;21.51;76.34;97902.09;5050357;28;19925;-66
2023/08/15 03:43:37;;;;;;;;;;;;;;;21.42;76.62;97894.94;5045998;28;19929;-66
2023/08/15 03:46:06;;;;;;;;;;;;;;;21.41;76.74;97892.53;5042953;28;19929;-65
2023/08/15 03:48:35;;;;;;;;;;;;;;;21.36;76.87;97888.19;5074808;28;19929;-66
2023/08/15 03:51:04;;;;;;;;;;;;;;;21.38;77.03;97891.34;5045352;28;19931;-65
2023/08/15 03:53:32;;;;;;;;;;;;;;;21.32;77.15;97890.13;5049221;28;19986;-66
2023/08/15 03:56:01;;;;;;;;;;;;;;;21.25;77.44;97878.97;5068403;28;19931;-66
2023/08/15 03:58:30;;;;;;;;;;;;;;;21.21;77.80;97888.44;5062465;28;19925;-66
2023/08/15 04:01:01;;;;;;;;;;;;;;;21.23;78.09;97897.13;5068789;28;20005;-66
2023/08/15 04:03:30;;;;;;;;;;;;;;;21.26;77.93;97910.97;5099911;27;19925;-66
2023/08/15 04:05:58;;;;;;;;;;;;;;;21.25;78.12;97917.66;5070030;28;19928;-66
2023/08/15 04:08:26;;;;;;;;;;;;;;;21.24;78.16;97910.53;5068016;28;20302;-66
2023/08/15 04:10:54;;;;;;;;;;;;;;;21.19;78.35;97902.59;5072595;28;19924;-66
2023/08/15 04:13:22;;;;;;;;;;;;;;;21.24;78.10;97905.03;5075239;28;19928;-66
2023/08/15 04:15:50;;;;;;;;;;;;;;;21.26;78.08;97905.44;5082952;28;19924;-66
2023/08/15 04:18:20;;;;;;;;;;;;;;;21.28;77.79;97905.06;5078061;28;19924;-66
2023/08/15 04:20:47;;;;;;;;;;;;;;;21.25;77.63;97908.56;5074334;28;19935;-66
2023/08/15 04:23:21;;;;;;;;;;;;;;;21.27;77.83;97914.53;5070748;28;19928;-66
2023/08/15 04:25:50;;;;;;;;;;;;;;;21.28;77.81;97916.13;5077317;28;19931;-66
2023/08/15 04:28:18;;;;;;;;;;;;;;;21.30;77.83;97913.78;5095858;27;19925;-66
2023/08/15 04:30:45;;;;;;;;;;;;;;;21.23;78.21;97908.19;5102943;28;19930;-66
2023/08/15 04:33:14;;;;;;;;;;;;;;;21.25;77.98;97906.59;5077459;28;19924;-66
2023/08/15 04:35:43;;;;;;;;;;;;;;;21.22;78.09;97906.59;5073007;28;19928;-66
2023/08/15 04:38:11;;;;;;;;;;;;;;;21.21;78.36;97905.00;5097687;28;19957;-66
2023/08/15 04:40:40;;;;;;;;;;;;;;;21.19;78.15;97903.41;5082088;28;19924;-67
2023/08/15 04:43:11;;;;;;;;;;;;;;;21.23;78.30;97905.41;5069972;28;20319;-65
2023/08/15 04:45:43;;;;;;;;;;;;;;;21.25;78.49;97898.31;5073632;28;19932;-66
2023/08/15 04:48:12;;;;;;;;;;;;;;;21.26;78.33;97897.16;5086888;28;19935;-66
2023/08/15 04:50:40;;;;;;;;;;;;;;;21.26;78.48;97910.97;5070461;28;19924;-66
2023/08/15 04:53:09;;;;;;;;;;;;;;;21.22;78.71;97918.44;5072128;28;19924;-66
2023/08/15 04:55:37;;;;;;;;;;;;;;;21.23;79.07;97914.50;5079779;28;19933;-66
2023/08/15 04:58:09;;;;;;;;;;;;;;;21.28;78.66;97921.63;5044017;28;20003;-66
2023/08/15 05:00:37;;;;;;;;;;;;;;;21.26;78.56;97924.00;5084666;28;20446;-66
2023/08/15 05:03:05;;;;;;;;;;;;;;;21.29;78.50;97929.53;5060551;28;19929;-65
2023/08/15 05:05:33;;;;;;;;;;;;;;;21.33;78.50;97930.41;5051487;28;19925;-66
2023/08/15 05:08:01;;;;;;;;;;;;;;;21.34;78.37;97936.72;5047150;28;19924;-65
2023/08/15 05:10:31;;;;;;;;;;;;;;;21.29;78.85;97946.13;5042627;28;20696;-66
2023/08/15 05:13:00;;;;;;;;;;;;;;;21.33;78.33;97941.44;5074414;28;19936;-66
2023/08/15 05:15:29;;;;;;;;;;;;;;;21.35;78.09;97939.09;5051579;28;19925;-66
2023/08/15 05:17:57;;;;;;;;;;;;;;;21.37;78.53;97942.28;5046113;28;19932;-66
2023/08/15 05:20:25;;;;;;;;;;;;;;;21.36;78.05;97950.94;5055050;28;19928;-65
2023/08/15 05:22:53;;;;;;;;;;;;;;;21.37;78.40;97952.53;5047604;28;20023;-66
2023/08/15 05:25:21;;;;;;;;;;;;;;;21.39;78.32;97956.50;5038884;28;19925;-66
2023/08/15 05:27:51;;;;;;;;;;;;;;;21.42;78.19;97966.00;5043898;28;19925;-66
2023/08/15 05:30:19;;;;;;;;;;;;;;;21.39;78.29;97961.25;5044161;28;19933;-66
2023/08/15 05:32:47;;;;;;;;;;;;;;;21.44;78.41;97964.44;5053216;28;19931;-66
2023/08/15 05:35:15;;;;;;;;;;;;;;;21.40;78.58;97960.06;5047806;28;19932;-67
2023/08/15 05:37:43;;;;;;;;;;;;;;;21.44;78.78;97969.97;5078619;28;19925;-67
2023/08/15 05:40:11;;;;;;;;;;;;;;;21.45;78.74;97957.72;5043457;28;19940;-67
2023/08/15 05:42:39;;;;;;;;;;;;;;;21.42;78.78;97961.28;5088715;28;20378;-66
2023/08/15 05:45:09;;;;;;;;;;;;;;;21.40;79.03;97963.63;5058872;28;20006;-65
2023/08/15 05:47:37;;;;;;;;;;;;;;;21.37;79.29;97956.09;5066299;28;20640;-66
2023/08/15 05:50:05;;;;;;;;;;;;;;;21.39;79.47;97958.47;5050615;28;20037;-65
2023/08/15 05:52:33;;;;;;;;;;;;;;;21.46;79.55;97964.06;5052272;28;19986;-66
2023/08/15 05:55:01;;;;;;;;;;;;;;;21.52;79.34;97959.78;5042683;28;19975;-66
2023/08/15 05:57:29;;;;;;;;;;;;;;;21.58;79.43;97958.25;5043993;28;19933;-66
2023/08/15 05:59:59;;;;;;;;;;;;;;;21.62;79.09;97961.81;5046599;28;19936;-66
2023/08/15 06:02:28;;;;;;;;;;;;;;;21.63;79.12;97965.41;5043606;28;19994;-66
2023/08/15 06:04:57;;;;;;;;;;;;;;;21.67;78.92;97972.53;5049243;28;19990;-66
2023/08/15 06:07:25;;;;;;;;;;;;;;;21.74;78.75;97985.63;5041412;28;19931;-66
2023/08/15 06:09:53;;;;;;;;;;;;;;;21.78;78.47;97994.72;5045886;28;20015;-66
2023/08/15 06:12:20;;;;;;;;;;;;;;;21.78;78.35;97993.94;5047191;28;20436;-65
2023/08/15 06:14:48;;;;;;;;;;;;;;;21.85;78.41;97996.78;5042168;28;19967;-66
2023/08/15 06:17:17;;;;;;;;;;;;;;;21.86;78.08;97996.38;5038213;28;19924;-65
2023/08/15 06:19:46;;;;;;;;;;;;;;;21.89;78.32;97990.09;5039753;28;20610;-66
2023/08/15 06:22:15;;;;;;;;;;;;;;;21.89;78.30;97990.09;5054145;28;19929;-66
2023/08/15 06:24:43;;;;;;;;;;;;;;;21.92;78.40;97982.97;5038911;28;19952;-66
2023/08/15 06:27:11;;;;;;;;;;;;;;;21.98;78.46;97987.75;5036013;28;19933;-66
2023/08/15 06:29:38;;;;;;;;;;;;;;;22.06;78.73;97983.09;5040528;28;19929;-68
2023/08/15 06:32:08;;;;;;;;;;;;;;;22.15;77.95;97980.00;5037485;28;19933;-67
2023/08/15 06:34:37;;;;;;;;;;;;;;;22.20;78.19;97982.41;5043369;28;19931;-68
2023/08/15 06:37:06;;;;;;;;;;;;;;;22.25;77.98;97986.78;5043870;28;20001;-67
2023/08/15 06:39:34;;;;;;;;;;;;;;;22.26;78.28;97986.38;5047948;28;19935;-67
2023/08/15 06:42:02;;;;;;;;;;;;;;;22.32;78.12;97995.09;5042976;28;19973;-67
2023/08/15 06:44:30;;;;;;;;;;;;;;;22.37;77.91;97992.78;5050463;28;19972;-68
2023/08/15 06:46:58;;;;;;;;;;;;;;;22.48;77.99;97988.09;5040784;28;20027;-68
2023/08/15 06:49:26;;;;;;;;;;;;;;;22.51;77.42;97996.81;5036913;28;19926;-68
2023/08/15 06:51:54;;;;;;;;;;;;;;;22.55;76.98;98000.38;5044145;28;19936;-67
2023/08/15 06:54:23;;;;;;;;;;;;;;;22.59;76.33;97990.13;5061898;28;19924;-68
2023/08/15 06:56:51;;;;;;;;;;;;;;;22.65;75.61;97991.34;5066113;28;19924;-66
2023/08/15 06:59:20;;;;;;;;;;;;;;;22.71;75.64;97996.09;5075726;28;19929;-67
2023/08/15 07:01:48;;;;;;;;;;;;;;;22.74;76.00;97998.09;5077553;28;20340;-68
2023/08/15 07:04:16;;;;;;;;;;;;;;;22.77;75.20;97993.75;5084577;28;20890;-67
2023/08/15 07:06:43;;;;;;;;;;;;;;;22.81;75.37;98000.09;5080395;28;19924;-66
2023/08/15 07:09:11;;;;;;;;;;;;;;;22.83;75.70;98008.81;5082598;28;19943;-66
2023/08/15 07:11:41;;;;;;;;;;;;;;;22.88;75.50;98002.13;5088169;28;19933;-67
2023/08/15 07:14:08;;;;;;;;;;;;;;;22.87;76.64;97998.53;5085942;28;19931;-68
2023/08/15 07:16:36;;;;;;;;;;;;;;;22.87;75.40;98004.06;5088832;28;19930;-68
2023/08/15 07:19:05;;;;;;;;;;;;;;;22.91;75.22;98010.47;5083638;28;19924;-68
2023/08/15 07:21:32;;;;;;;;;;;;;;;22.93;75.16;98004.53;5083291;28;20377;-67
2023/08/15 07:24:01;;;;;;;;;;;;;;;23.02;75.97;98009.72;5082404;28;20515;-67
2023/08/15 07:26:30;;;;;;;;;;;;;;;23.09;76.18;98020.81;5096470;28;19931;-67
2023/08/15 07:28:59;;;;;;;;;;;;;;;23.15;75.14;98022.00;5098049;28;20359;-68
2023/08/15 07:31:28;;;;;;;;;;;;;;;23.23;75.07;98021.63;5082103;28;19998;-67
2023/08/15 07:33:56;;;;;;;;;;;;;;;23.27;73.36;98022.41;5059656;28;19993;-67
2023/08/15 07:36:24;;;;;;;;;;;;;;;23.31;73.10;98018.88;5088950;28;19928;-68
2023/08/15 07:38:52;;;;;;;;;;;;;;;23.38;73.17;98011.34;5082693;28;20296;-67
2023/08/15 07:41:20;;;;;;;;;;;;;;;23.43;72.93;98010.16;5082703;28;20208;-68
2023/08/15 07:43:50;;;;;;;;;;;;;;;23.47;72.66;98013.75;5083253;28;20677;-68
2023/08/15 07:46:20;;;;;;;;;;;;;;;23.55;72.68;98009.00;5070739;28;19928;-69
2023/08/15 07:48:48;;;;;;;;;;;;;;;23.57;72.38;98006.63;5068395;28;19932;-68
2023/08/15 07:51:16;;;;;;;;;;;;;;;23.69;72.11;98007.06;5082097;28;20441;-67
2023/08/15 07:53:44;;;;;;;;;;;;;;;23.72;71.65;98020.13;5083903;28;19939;-67
2023/08/15 07:56:12;;;;;;;;;;;;;;;23.76;71.96;98015.41;5096826;27;19974;-67
2023/08/15 07:58:39;;;;;;;;;;;;;;;23.82;72.25;98013.00;5069169;28;19924;-67
2023/08/15 08:01:08;;;;;;;;;;;;;;;23.93;70.92;98013.81;5085210;28;19929;-67
2023/08/15 08:03:39;;;;;;;;;;;;;;;23.99;71.28;98017.75;5072866;28;19932;-67
2023/08/15 08:06:07;;;;;;;;;;;;;;;23.98;70.86;98020.94;5078549;28;20002;-67
2023/08/15 08:08:43;;;;;;;;;;;;;;;23.99;70.42;98022.50;5084085;28;19928;-64
2023/08/15 08:11:11;;;;;;;;;;;;;;;23.99;70.36;98023.31;5086132;28;19932;-64
2023/08/15 08:13:39;;;;;;;;;;;;;;;24.01;70.52;98023.69;5069778;28;20001;-63
2023/08/15 08:16:07;;;;;;;;;;;;;;;24.14;69.74;98028.84;5065974;28;20454;-63
2023/08/15 08:18:36;;;;;;;;;;;;;;;24.18;70.31;98024.88;5079738;28;19929;-63
2023/08/15 08:21:06;;;;;;;;;;;;;;;24.31;69.71;98019.69;5087107;28;19936;-64
2023/08/15 08:23:33;;;;;;;;;;;;;;;24.34;68.62;98020.88;5082226;28;19927;-65
2023/08/15 08:26:01;;;;;;;;;;;;;;;24.34;68.36;98018.88;5087845;28;20389;-64
2023/08/15 08:28:29;;;;;;;;;;;;;;;24.35;68.58;98023.28;5090507;28;19935;-65
2023/08/15 08:30:58;;;;;;;;;;;;;;;24.40;68.39;98024.88;5086180;28;19924;-64
2023/08/15 08:33:28;;;;;;;;;;;;;;;24.43;69.31;98019.28;5084710;28;19932;-65
2023/08/15 08:35:57;;;;;;;;;;;;;;;24.46;69.12;98018.50;5097774;28;19924;-65
2023/08/15 08:38:28;;;;;;;;;;;;;;;24.45;67.78;98021.66;5088835;28;20456;-65
2023/08/15 08:40:56;;;;;;;;;;;;;;;24.44;67.55;98022.84;5095657;28;19924;-64
2023/08/15 08:43:25;;;;;;;;;;;;;;;24.46;67.25;98029.59;5066554;28;19928;-64
2023/08/15 08:45:52;;;;;;;;;;;;;;;24.49;67.76;98022.44;5089307;28;19990;-64
2023/08/15 08:48:20;;;;;;;;;;;;;;;24.51;68.79;98022.84;5090091;28;19931;-65
2023/08/15 08:50:49;;;;;;;;;;;;;;;24.53;68.13;98024.03;5089022;28;19986;-65
2023/08/15 08:53:18;;;;;;;;;;;;;;;24.77;67.11;98018.81;5085949;28;20015;-65
2023/08/15 08:55:46;;;;;;;;;;;;;;;24.78;67.42;98017.59;5040047;28;19929;-65
2023/08/15 08:58:14;;;;;;;;;;;;;;;24.91;67.07;98007.59;5039905;28;19932;-65
2023/08/15 09:00:42;;;;;;;;;;;;;;;24.98;67.06;98004.81;5043667;28;20387;-64
2023/08/15 09:03:10;;;;;;;;;;;;;;;25.08;66.18;98006.75;5044793;28;19928;-65
2023/08/15 09:05:38;;;;;;;;;;;;;;;25.06;65.57;98000.81;5049421;28;20010;-65
2023/08/15 09:08:06;;;;;;;;;;;;;;;25.16;66.46;98006.72;5050055;28;19924;-64
2023/08/15 09:10:36;;;;;;;;;;;;;;;25.13;65.25;98010.31;5047511;28;20420;-66
2023/08/15 09:13:04;;;;;;;;;;;;;;;25.13;66.12;98013.09;5046760;28;19982;-65
2023/08/15 09:15:32;;;;;;;;;;;;;;;25.02;65.89;98008.34;5045665;28;19933;-65
2023/08/15 09:18:04;;;;;;;;;;;;;;;25.15;65.59;98016.28;5048831;28;19924;-65
2023/08/15 09:20:34;;;;;;;;;;;;;;;25.06;65.52;98011.94;5051580;28;20488;-64
2023/08/15 09:23:02;;;;;;;;;;;;;;;25.11;65.55;98007.16;5042679;28;20380;-64
2023/08/15 09:25:33;;;;;;;;;;;;;;;25.14;65.12;98009.91;5044098;28;20370;-65
2023/08/15 09:28:02;;;;;;;;;;;;;;;25.14;65.70;98014.66;5077751;28;19928;-65
2023/08/15 09:30:30;;;;;;;;;;;;;;;25.18;66.23;98009.88;5045509;28;19984;-65
2023/08/15 09:32:58;;;;;;;;;;;;;;;25.18;65.49;98007.09;5043073;28;19987;-65
2023/08/15 09:35:26;;;;;;;;;;;;;;;25.32;66.00;98009.81;5050395;28;19925;-65
2023/08/15 09:37:54;;;;;;;;;;;;;;;25.37;66.12;98003.81;5045225;28;19928;-65
2023/08/15 09:40:23;;;;;;;;;;;;;;;25.36;65.26;98007.81;5037368;28;19928;-65
2023/08/15 09:42:51;;;;;;;;;;;;;;;25.37;65.83;98014.16;5044583;28;19925;-64
2023/08/15 09:45:20;;;;;;;;;;;;;;;25.37;65.76;98000.25;5047012;28;19924;-65
2023/08/15 09:47:48;;;;;;;;;;;;;;;25.51;65.94;98005.69;5040725;28;19925;-65
2023/08/15 09:50:16;;;;;;;;;;;;;;;25.62;66.03;98009.22;5046240;28;19935;-65
2023/08/15 09:52:45;;;;;;;;;;;;;;;25.59;64.85;98004.44;5050546;28;20401;-65
2023/08/15 09:55:16;;;;;;;;;;;;;;;25.64;65.54;98006.81;5089687;28;20008;-65
2023/08/15 09:57:44;;;;;;;;;;;;;;;25.70;65.25;98015.50;5076572;28;19928;-66
2023/08/15 10:00:13;;;;;;;;;;;;;;;25.85;64.79;98011.44;5060272;28;20370;-66
2023/08/15 10:02:53;;;;;;;;;;;;;;;25.91;64.58;98009.78;5061898;28;19924;-66
2023/08/15 10:05:22;;;;;;;;;;;;;;;25.91;64.16;98009.78;5062014;28;20412;-66
2023/08/15 10:07:51;;;;;;;;;;;;;;;25.90;64.36;98008.22;5060910;28;19939;-66
2023/08/15 10:10:19;;;;;;;;;;;;;;;25.81;63.12;98007.88;5062628;28;19940;-66
2023/08/15 10:12:47;;;;;;;;;;;;;;;25.83;63.21;98003.50;5102199;28;19924;-66
2023/08/15 10:15:15;;;;;;;;;;;;;;;25.77;61.92;98007.13;5067080;28;20378;-66
2023/08/15 10:17:45;;;;;;;;;;;;;;;25.80;61.57;98009.09;5060765;28;20483;-66
2023/08/15 10:20:16;;;;;;;;;;;;;;;25.78;61.30;98006.72;5064280;28;20428;-66
2023/08/15 10:22:44;;;;;;;;;;;;;;;25.76;61.25;98005.53;5065233;28;19925;-66
2023/08/15 10:25:18;;;;;;;;;;;;;;;25.82;62.02;98007.47;5068945;28;19981;-65
2023/08/15 10:27:47;;;;;;;;;;;;;;;25.86;61.98;98005.44;5061468;28;20285;-66
2023/08/15 10:30:27;;;;;;;;;;;;;;;25.92;61.28;97996.66;5064165;28;19933;-65
2023/08/15 10:32:56;;;;;;;;;;;;;;;26.02;62.60;98001.34;5062037;28;20313;-66
2023/08/15 10:35:27;;;;;;;;;;;;;;;26.00;62.07;97995.41;5064437;28;20358;-65
2023/08/15 10:37:59;;;;;;;;;;;;;;;26.10;62.83;97998.09;5068680;28;19935;-66
2023/08/15 10:40:28;;;;;;;;;;;;;;;26.10;61.91;97989.72;5067244;28;20312;-66
2023/08/15 10:43:10;;;;;;;;;;;;;;;26.08;60.36;97986.56;5060958;28;19939;-66
2023/08/15 10:45:40;;;;;;;;;;;;;;;26.05;60.59;97992.19;5066733;28;20393;-66
2023/08/15 10:48:10;;;;;;;;;;;;;;;26.06;61.91;97988.97;5064484;28;20285;-66
2023/08/15 10:50:42;;;;;;;;;;;;;;;26.09;61.12;97998.47;5059716;28;19935;-67
2023/08/15 10:53:11;;;;;;;;;;;;;;;26.07;60.77;97995.31;5060816;28;20283;-66
2023/08/15 10:55:39;;;;;;;;;;;;;;;26.17;61.80;98004.78;5080296;28;19928;-65
2023/08/15 10:58:07;;;;;;;;;;;;;;;26.24;61.23;97999.13;5086474;28;19924;-66
2023/08/15 11:00:37;;;;;;;;;;;;;;;26.37;60.45;98003.00;5086842;28;20293;-66
2023/08/15 11:03:06;;;;;;;;;;;;;;;26.45;59.83;97998.94;5092187;28;19930;-66
2023/08/15 11:05:35;;;;;;;;;;;;;;;26.45;59.53;97998.94;5089088;28;20369;-64
2023/08/15 11:08:10;;;;;;;;;;;;;;;26.49;60.48;98002.47;5075555;28;20013;-66
2023/08/15 11:10:43;;;;;;;;;;;;;;;26.47;60.42;98007.66;5084180;28;20018;-65
2023/08/15 11:13:12;;;;;;;;;;;;;;;26.47;59.20;98007.66;5073275;28;19935;-66
2023/08/15 11:15:39;;;;;;;;;;;;;;;26.43;58.81;98006.94;5085031;28;20227;-66
2023/08/15 11:18:09;;;;;;;;;;;;;;;26.50;56.93;98011.63;5090315;28;20011;-67
2023/08/15 11:20:40;;;;;;;;;;;;;;;26.48;57.47;98016.84;5088834;28;19971;-66
2023/08/15 11:23:10;;;;;;;;;;;;;;;26.58;56.97;98024.25;5109041;27;19981;-66
2023/08/15 11:25:38;;;;;;;;;;;;;;;26.75;55.73;98017.72;5071537;28;20511;-66
2023/08/15 11:28:06;;;;;;;;;;;;;;;26.93;56.45;98014.69;5088596;28;19963;-66
2023/08/15 11:30:34;;;;;;;;;;;;;;;26.85;57.07;98016.00;5108548;28;19973;-66
2023/08/15 11:33:02;;;;;;;;;;;;;;;26.88;55.91;98020.72;5069017;28;19943;-66
2023/08/15 11:35:30;;;;;;;;;;;;;;;26.84;54.57;98017.97;5090568;28;19947;-65
2023/08/15 11:38:00;;;;;;;;;;;;;;;26.86;53.75;98012.00;5082973;28;19924;-66
2023/08/15 11:40:30;;;;;;;;;;;;;;;26.89;54.51;98011.16;5092759;28;20517;-66
2023/08/15 11:42:58;;;;;;;;;;;;;;;26.75;55.59;98005.78;5074249;28;19976;-66
2023/08/15 11:45:26;;;;;;;;;;;;;;;26.80;53.88;98020.03;5092925;28;19928;-65
2023/08/15 11:47:58;;;;;;;;;;;;;;;26.85;52.20;98016.00;5073923;28;20324;-64
2023/08/15 11:50:26;;;;;;;;;;;;;;;26.96;50.72;98018.66;5097699;28;20429;-66
2023/08/15 11:53:11;;;;;;;;;;;;;;;26.90;51.88;98029.47;5079779;28;20578;-66
2023/08/15 11:55:39;;;;;;;;;;;;;;;27.02;51.43;98026.13;5086768;28;20343;-65
2023/08/15 11:58:21;;;;;;;;;;;;;;;27.07;51.74;98020.13;5090330;28;20614;-65
2023/08/15 12:00:51;;;;;;;;;;;;;;;27.11;51.26;98029.22;5091715;28;20356;-66
2023/08/15 12:03:19;;;;;;;;;;;;;;;27.10;52.88;98021.25;5087957;28;19924;-64
2023/08/15 12:05:47;;;;;;;;;;;;;;;27.16;52.45;98036.31;5093061;28;20361;-66
2023/08/15 12:08:17;;;;;;;;;;;;;;;27.22;51.72;98031.06;5086018;28;20300;-65
2023/08/15 12:10:45;;;;;;;;;;;;;;;27.17;53.51;98031.56;5100170;28;19938;-66
2023/08/15 12:13:13;;;;;;;;;;;;;;;27.21;52.84;98027.47;5072463;28;19940;-66
2023/08/15 12:15:41;;;;;;;;;;;;;;;27.17;54.14;98039.91;5083729;28;19924;-66
2023/08/15 12:18:10;;;;;;;;;;;;;;;27.18;54.07;98041.50;5104420;28;20013;-66
2023/08/15 12:20:38;;;;;;;;;;;;;;;27.18;54.20;98042.28;5083617;28;19950;-66
2023/08/15 12:23:06;;;;;;;;;;;;;;;27.22;53.35;98045.00;5104844;28;19928;-66
2023/08/15 12:25:40;;;;;;;;;;;;;;;27.26;51.67;98046.53;5080969;28;19929;-64
2023/08/15 12:28:08;;;;;;;;;;;;;;;27.34;52.17;98034.09;5086412;28;20377;-64
2023/08/15 12:30:36;;;;;;;;;;;;;;;27.41;51.47;98035.97;5092252;28;19932;-65
2023/08/15 12:33:05;;;;;;;;;;;;;;;27.50;52.08;98025.09;5078501;28;20006;-66
2023/08/15 12:35:35;;;;;;;;;;;;;;;27.55;50.23;98038.56;5090586;28;20340;-66
2023/08/15 12:38:03;;;;;;;;;;;;;;;27.48;51.63;98032.28;5070112;28;19934;-66
2023/08/15 12:40:31;;;;;;;;;;;;;;;27.40;51.37;98037.97;5087464;28;19935;-66
2023/08/15 12:43:00;;;;;;;;;;;;;;;27.56;46.98;98030.97;5073766;28;19928;-66
2023/08/15 12:45:29;;;;;;;;;;;;;;;27.62;47.31;98032.88;5086939;28;19955;-66
2023/08/15 12:47:56;;;;;;;;;;;;;;;27.60;44.57;98026.94;5064418;28;19981;-65
2023/08/15 12:50:24;;;;;;;;;;;;;;;27.59;48.87;98025.34;5091482;28;19928;-66
2023/08/15 12:52:52;;;;;;;;;;;;;;;27.59;45.81;98021.75;5082840;28;20456;-66
2023/08/15 12:55:20;;;;;;;;;;;;;;;27.60;45.73;98009.41;5089079;28;19927;-65